Terminal Aerodrome Forecast
Issued by NWS

Home | Current Version | Previous Version | Graphics & Text | Print | Product List | Glossary On
Versions: 1 2 3 4 5 6 7 8 9 10 11 12 13 14 15 16 17 18 19 20 21 22
000
FTUS43 KFGF 230520
TAFBJI
TAF
KBJI 230520Z 2306/2406 22013KT P6SM BKN060
     FM230800 27010KT P6SM BKN035
     FM231000 28008KT P6SM BKN015
     FM231200 28005KT P6SM OVC010
     FM231500 31006KT P6SM OVC010
     FM231800 33006KT P6SM OVC015
     FM232200 36005KT P6SM VCSH OVC035
     FM240500 05005KT P6SM VCSH OVC008=

USA.gov is the U.S. government's official web portal to all federal, state and local government web resources and services.